sensor_id;sensor_type;location;lat;lon;timestamp;temperature;humidity
62809;DHT22;48848;39.002;-94.584;2022-10-30T00:01:43;21.30;47.20
62809;DHT22;48848;39.002;-94.584;2022-10-30T00:04:09;21.20;47.40
62809;DHT22;48848;39.002;-94.584;2022-10-30T00:06:35;21.20;47.30
62809;DHT22;48848;39.002;-94.584;2022-10-30T00:09:01;21.20;47.30
62809;DHT22;48848;39.002;-94.584;2022-10-30T00:11:27;21.20;47.30
62809;DHT22;48848;39.002;-94.584;2022-10-30T00:13:54;21.20;47.40
62809;DHT22;48848;39.002;-94.584;2022-10-30T00:16:20;21.20;47.30
62809;DHT22;48848;39.002;-94.584;2022-10-30T00:18:46;21.20;47.20
62809;DHT22;48848;39.002;-94.584;2022-10-30T00:21:14;21.20;47.10
62809;DHT22;48848;39.002;-94.584;2022-10-30T00:23:48;21.20;47.10
62809;DHT22;48848;39.002;-94.584;2022-10-30T00:26:15;21.20;47.00
62809;DHT22;48848;39.002;-94.584;2022-10-30T00:28:41;21.20;46.90
62809;DHT22;48848;39.002;-94.584;2022-10-30T00:31:08;21.20;47.10
62809;DHT22;48848;39.002;-94.584;2022-10-30T00:33:34;21.20;47.10
62809;DHT22;48848;39.002;-94.584;2022-10-30T00:36:01;21.20;47.20
62809;DHT22;48848;39.002;-94.584;2022-10-30T00:38:27;21.20;47.00
62809;DHT22;48848;39.002;-94.584;2022-10-30T00:40:53;21.20;47.10
62809;DHT22;48848;39.002;-94.584;2022-10-30T00:45:52;21.20;47.00
62809;DHT22;48848;39.002;-94.584;2022-10-30T00:48:20;21.20;47.10
62809;DHT22;48848;39.002;-94.584;2022-10-30T00:50:49;21.20;46.90
62809;DHT22;48848;39.002;-94.584;2022-10-30T00:53:18;21.20;46.80
62809;DHT22;48848;39.002;-94.584;2022-10-30T00:56:11;21.20;47.10
62809;DHT22;48848;39.002;-94.584;2022-10-30T00:58:41;21.20;47.00
62809;DHT22;48848;39.002;-94.584;2022-10-30T01:01:15;21.10;46.80
62809;DHT22;48848;39.002;-94.584;2022-10-30T01:03:42;21.10;46.90
62809;DHT22;48848;39.002;-94.584;2022-10-30T01:06:10;21.10;46.90
62809;DHT22;48848;39.002;-94.584;2022-10-30T01:08:38;21.10;47.00
62809;DHT22;48848;39.002;-94.584;2022-10-30T01:11:05;21.10;47.00
62809;DHT22;48848;39.002;-94.584;2022-10-30T01:13:33;21.10;47.00
62809;DHT22;48848;39.002;-94.584;2022-10-30T01:35:17;21.00;47.30
62809;DHT22;48848;39.002;-94.584;2022-10-30T01:40:20;21.00;47.10
62809;DHT22;48848;39.002;-94.584;2022-10-30T01:42:52;21.10;47.10
62809;DHT22;48848;39.002;-94.584;2022-10-30T01:53:59;21.00;47.10
62809;DHT22;48848;39.002;-94.584;2022-10-30T01:59:30;21.00;47.30
62809;DHT22;48848;39.002;-94.584;2022-10-30T02:01:58;21.00;47.30
62809;DHT22;48848;39.002;-94.584;2022-10-30T02:04:24;21.00;47.30
62809;DHT22;48848;39.002;-94.584;2022-10-30T02:06:51;20.90;47.20
62809;DHT22;48848;39.002;-94.584;2022-10-30T02:09:17;20.90;47.60
62809;DHT22;48848;39.002;-94.584;2022-10-30T02:11:45;20.90;47.50
62809;DHT22;48848;39.002;-94.584;2022-10-30T02:14:13;20.90;47.40
62809;DHT22;48848;39.002;-94.584;2022-10-30T02:16:45;20.90;47.50
62809;DHT22;48848;39.002;-94.584;2022-10-30T02:19:13;20.90;47.50
62809;DHT22;48848;39.002;-94.584;2022-10-30T02:21:39;20.90;47.60
62809;DHT22;48848;39.002;-94.584;2022-10-30T02:24:06;20.90;47.70
62809;DHT22;48848;39.002;-94.584;2022-10-30T02:26:32;20.90;47.70
62809;DHT22;48848;39.002;-94.584;2022-10-30T02:28:58;20.90;47.60
62809;DHT22;48848;39.002;-94.584;2022-10-30T02:31:24;20.90;47.50
62809;DHT22;48848;39.002;-94.584;2022-10-30T02:33:50;20.80;47.30
62809;DHT22;48848;39.002;-94.584;2022-10-30T02:36:16;20.80;47.50
62809;DHT22;48848;39.002;-94.584;2022-10-30T02:38:43;20.80;47.80
62809;DHT22;48848;39.002;-94.584;2022-10-30T02:41:10;20.90;47.90
62809;DHT22;48848;39.002;-94.584;2022-10-30T02:43:36;20.90;48.00
62809;DHT22;48848;39.002;-94.584;2022-10-30T02:46:03;20.80;48.10
62809;DHT22;48848;39.002;-94.584;2022-10-30T02:48:30;20.90;48.40
62809;DHT22;48848;39.002;-94.584;2022-10-30T02:51:01;20.80;48.50
62809;DHT22;48848;39.002;-94.584;2022-10-30T02:53:28;20.80;48.30
62809;DHT22;48848;39.002;-94.584;2022-10-30T02:55:54;20.80;48.20
62809;DHT22;48848;39.002;-94.584;2022-10-30T02:58:21;20.90;48.00
62809;DHT22;48848;39.002;-94.584;2022-10-30T03:00:47;20.80;48.10
62809;DHT22;48848;39.002;-94.584;2022-10-30T03:03:13;20.80;47.90
62809;DHT22;48848;39.002;-94.584;2022-10-30T03:05:39;20.80;48.10
62809;DHT22;48848;39.002;-94.584;2022-10-30T03:08:06;20.80;48.00
62809;DHT22;48848;39.002;-94.584;2022-10-30T03:10:32;20.80;47.80
62809;DHT22;48848;39.002;-94.584;2022-10-30T03:12:58;20.80;48.00
62809;DHT22;48848;39.002;-94.584;2022-10-30T03:15:24;20.80;47.90
62809;DHT22;48848;39.002;-94.584;2022-10-30T03:17:50;20.70;48.10
62809;DHT22;48848;39.002;-94.584;2022-10-30T03:20:17;20.70;47.80
62809;DHT22;48848;39.002;-94.584;2022-10-30T03:22:44;20.70;47.80
62809;DHT22;48848;39.002;-94.584;2022-10-30T03:25:10;20.70;48.20
62809;DHT22;48848;39.002;-94.584;2022-10-30T03:27:36;20.70;48.20
62809;DHT22;48848;39.002;-94.584;2022-10-30T03:30:02;20.70;48.10
62809;DHT22;48848;39.002;-94.584;2022-10-30T03:32:28;20.70;48.10
62809;DHT22;48848;39.002;-94.584;2022-10-30T03:34:55;20.70;48.00
62809;DHT22;48848;39.002;-94.584;2022-10-30T03:37:21;20.70;48.00
62809;DHT22;48848;39.002;-94.584;2022-10-30T03:39:47;20.70;47.90
62809;DHT22;48848;39.002;-94.584;2022-10-30T03:42:13;20.70;48.10
62809;DHT22;48848;39.002;-94.584;2022-10-30T03:44:39;20.70;47.90
62809;DHT22;48848;39.002;-94.584;2022-10-30T03:47:05;20.70;48.20
62809;DHT22;48848;39.002;-94.584;2022-10-30T03:49:31;20.60;48.10
62809;DHT22;48848;39.002;-94.584;2022-10-30T03:51:57;20.60;48.10
62809;DHT22;48848;39.002;-94.584;2022-10-30T03:54:24;20.60;47.90
62809;DHT22;48848;39.002;-94.584;2022-10-30T03:56:50;20.60;47.80
62809;DHT22;48848;39.002;-94.584;2022-10-30T03:59:16;20.60;47.90
62809;DHT22;48848;39.002;-94.584;2022-10-30T04:01:42;20.60;47.90
62809;DHT22;48848;39.002;-94.584;2022-10-30T04:04:08;20.60;47.90
62809;DHT22;48848;39.002;-94.584;2022-10-30T04:06:34;20.60;47.80
62809;DHT22;48848;39.002;-94.584;2022-10-30T04:09:01;20.60;47.70
62809;DHT22;48848;39.002;-94.584;2022-10-30T04:11:27;20.60;47.60
62809;DHT22;48848;39.002;-94.584;2022-10-30T04:13:53;20.60;47.50
62809;DHT22;48848;39.002;-94.584;2022-10-30T04:16:19;20.50;47.60
62809;DHT22;48848;39.002;-94.584;2022-10-30T04:18:45;20.50;47.60
62809;DHT22;48848;39.002;-94.584;2022-10-30T04:21:11;20.50;47.90
62809;DHT22;48848;39.002;-94.584;2022-10-30T04:23:37;20.50;48.00
62809;DHT22;48848;39.002;-94.584;2022-10-30T04:26:04;20.50;48.10
62809;DHT22;48848;39.002;-94.584;2022-10-30T04:28:30;20.50;48.40
62809;DHT22;48848;39.002;-94.584;2022-10-30T04:30:56;20.50;48.30
62809;DHT22;48848;39.002;-94.584;2022-10-30T04:33:22;20.40;47.90
62809;DHT22;48848;39.002;-94.584;2022-10-30T04:35:49;20.40;47.80
62809;DHT22;48848;39.002;-94.584;2022-10-30T04:38:15;20.40;47.80
62809;DHT22;48848;39.002;-94.584;2022-10-30T04:40:44;20.40;47.80
62809;DHT22;48848;39.002;-94.584;2022-10-30T04:43:11;20.40;47.80
62809;DHT22;48848;39.002;-94.584;2022-10-30T04:45:38;20.40;47.80
62809;DHT22;48848;39.002;-94.584;2022-10-30T04:48:07;20.40;47.90
62809;DHT22;48848;39.002;-94.584;2022-10-30T04:50:35;20.30;47.90
62809;DHT22;48848;39.002;-94.584;2022-10-30T04:53:03;20.30;48.40
62809;DHT22;48848;39.002;-94.584;2022-10-30T04:55:30;20.40;48.70
62809;DHT22;48848;39.002;-94.584;2022-10-30T04:57:58;20.30;48.60
62809;DHT22;48848;39.002;-94.584;2022-10-30T05:00:25;20.30;48.60
62809;DHT22;48848;39.002;-94.584;2022-10-30T05:02:52;20.30;48.50
62809;DHT22;48848;39.002;-94.584;2022-10-30T05:05:19;20.30;50.50
62809;DHT22;48848;39.002;-94.584;2022-10-30T05:07:45;20.30;48.60
62809;DHT22;48848;39.002;-94.584;2022-10-30T05:10:12;20.30;48.20
62809;DHT22;48848;39.002;-94.584;2022-10-30T05:12:43;20.30;48.60
62809;DHT22;48848;39.002;-94.584;2022-10-30T05:15:11;20.30;48.70
62809;DHT22;48848;39.002;-94.584;2022-10-30T05:17:38;20.30;48.70
62809;DHT22;48848;39.002;-94.584;2022-10-30T05:20:06;20.20;48.50
62809;DHT22;48848;39.002;-94.584;2022-10-30T05:22:32;20.20;48.60
62809;DHT22;48848;39.002;-94.584;2022-10-30T05:24:58;20.20;48.60
62809;DHT22;48848;39.002;-94.584;2022-10-30T05:27:24;20.20;48.60
62809;DHT22;48848;39.002;-94.584;2022-10-30T05:29:51;20.20;48.70
62809;DHT22;48848;39.002;-94.584;2022-10-30T05:32:17;20.20;48.80
62809;DHT22;48848;39.002;-94.584;2022-10-30T05:34:43;20.10;48.50
62809;DHT22;48848;39.002;-94.584;2022-10-30T05:37:09;20.10;48.50
62809;DHT22;48848;39.002;-94.584;2022-10-30T05:39:35;20.10;48.50
62809;DHT22;48848;39.002;-94.584;2022-10-30T05:42:01;20.10;48.50
62809;DHT22;48848;39.002;-94.584;2022-10-30T05:44:28;20.10;48.50
62809;DHT22;48848;39.002;-94.584;2022-10-30T05:46:54;20.10;48.70
62809;DHT22;48848;39.002;-94.584;2022-10-30T05:49:20;20.10;48.50
62809;DHT22;48848;39.002;-94.584;2022-10-30T05:51:46;20.10;49.00
62809;DHT22;48848;39.002;-94.584;2022-10-30T05:54:12;20.10;49.10
62809;DHT22;48848;39.002;-94.584;2022-10-30T05:56:38;20.00;49.30
62809;DHT22;48848;39.002;-94.584;2022-10-30T05:59:04;20.00;49.10
62809;DHT22;48848;39.002;-94.584;2022-10-30T06:01:31;20.00;49.00
62809;DHT22;48848;39.002;-94.584;2022-10-30T06:03:57;20.00;49.00
62809;DHT22;48848;39.002;-94.584;2022-10-30T06:06:23;20.00;49.10
62809;DHT22;48848;39.002;-94.584;2022-10-30T06:08:49;20.00;49.00
62809;DHT22;48848;39.002;-94.584;2022-10-30T06:11:15;20.00;49.30
62809;DHT22;48848;39.002;-94.584;2022-10-30T06:13:41;19.90;49.10
62809;DHT22;48848;39.002;-94.584;2022-10-30T06:16:07;19.90;49.10
62809;DHT22;48848;39.002;-94.584;2022-10-30T06:18:34;19.90;49.20
62809;DHT22;48848;39.002;-94.584;2022-10-30T06:21:00;19.90;49.20
62809;DHT22;48848;39.002;-94.584;2022-10-30T06:23:26;19.90;49.30
62809;DHT22;48848;39.002;-94.584;2022-10-30T06:25:52;19.90;50.50
62809;DHT22;48848;39.002;-94.584;2022-10-30T06:28:18;19.90;49.20
62809;DHT22;48848;39.002;-94.584;2022-10-30T06:30:44;19.90;49.10
62809;DHT22;48848;39.002;-94.584;2022-10-30T06:33:10;19.90;49.30
62809;DHT22;48848;39.002;-94.584;2022-10-30T06:35:37;19.90;49.40
62809;DHT22;48848;39.002;-94.584;2022-10-30T06:38:03;19.80;49.20
62809;DHT22;48848;39.002;-94.584;2022-10-30T06:40:29;19.90;49.40
62809;DHT22;48848;39.002;-94.584;2022-10-30T06:42:56;19.90;49.40
62809;DHT22;48848;39.002;-94.584;2022-10-30T06:45:22;19.80;49.40
62809;DHT22;48848;39.002;-94.584;2022-10-30T06:47:49;19.80;49.30
62809;DHT22;48848;39.002;-94.584;2022-10-30T06:50:19;19.80;49.30
62809;DHT22;48848;39.002;-94.584;2022-10-30T06:52:45;19.80;49.50
62809;DHT22;48848;39.002;-94.584;2022-10-30T06:55:11;19.80;49.60
62809;DHT22;48848;39.002;-94.584;2022-10-30T06:57:38;19.80;49.50
62809;DHT22;48848;39.002;-94.584;2022-10-30T07:00:05;19.80;49.30
62809;DHT22;48848;39.002;-94.584;2022-10-30T07:02:32;19.80;49.60
62809;DHT22;48848;39.002;-94.584;2022-10-30T07:04:58;19.80;49.30
62809;DHT22;48848;39.002;-94.584;2022-10-30T07:07:24;19.80;49.50
62809;DHT22;48848;39.002;-94.584;2022-10-30T07:09:50;19.80;49.40
62809;DHT22;48848;39.002;-94.584;2022-10-30T07:12:17;19.70;49.60
62809;DHT22;48848;39.002;-94.584;2022-10-30T07:14:43;19.70;49.70
62809;DHT22;48848;39.002;-94.584;2022-10-30T07:17:09;19.70;49.70
62809;DHT22;48848;39.002;-94.584;2022-10-30T07:19:35;19.70;49.60
62809;DHT22;48848;39.002;-94.584;2022-10-30T07:22:01;19.70;49.50
62809;DHT22;48848;39.002;-94.584;2022-10-30T07:24:28;19.70;49.50
62809;DHT22;48848;39.002;-94.584;2022-10-30T07:26:54;19.70;49.40
62809;DHT22;48848;39.002;-94.584;2022-10-30T07:29:21;19.70;49.60
62809;DHT22;48848;39.002;-94.584;2022-10-30T07:31:47;19.60;49.70
62809;DHT22;48848;39.002;-94.584;2022-10-30T07:34:14;19.60;49.60
62809;DHT22;48848;39.002;-94.584;2022-10-30T07:36:41;19.60;49.60
62809;DHT22;48848;39.002;-94.584;2022-10-30T07:39:07;19.60;49.60
62809;DHT22;48848;39.002;-94.584;2022-10-30T07:41:34;19.60;50.70
62809;DHT22;48848;39.002;-94.584;2022-10-30T07:44:00;19.60;49.50
62809;DHT22;48848;39.002;-94.584;2022-10-30T07:46:26;19.60;49.70
62809;DHT22;48848;39.002;-94.584;2022-10-30T07:48:52;19.60;49.60
62809;DHT22;48848;39.002;-94.584;2022-10-30T07:51:19;19.60;49.70
62809;DHT22;48848;39.002;-94.584;2022-10-30T07:53:45;19.60;49.50
62809;DHT22;48848;39.002;-94.584;2022-10-30T07:56:11;19.60;49.60
62809;DHT22;48848;39.002;-94.584;2022-10-30T07:58:37;19.50;49.80
62809;DHT22;48848;39.002;-94.584;2022-10-30T08:01:03;19.60;49.80
62809;DHT22;48848;39.002;-94.584;2022-10-30T08:03:30;19.60;49.90
62809;DHT22;48848;39.002;-94.584;2022-10-30T08:05:56;19.50;49.70
62809;DHT22;48848;39.002;-94.584;2022-10-30T08:08:22;19.50;49.90
62809;DHT22;48848;39.002;-94.584;2022-10-30T08:10:49;19.50;50.60
62809;DHT22;48848;39.002;-94.584;2022-10-30T08:13:15;19.50;49.70
62809;DHT22;48848;39.002;-94.584;2022-10-30T08:15:43;19.50;50.10
62809;DHT22;48848;39.002;-94.584;2022-10-30T08:18:09;19.50;50.00
62809;DHT22;48848;39.002;-94.584;2022-10-30T08:20:35;19.50;50.00
62809;DHT22;48848;39.002;-94.584;2022-10-30T08:23:01;19.50;49.70
62809;DHT22;48848;39.002;-94.584;2022-10-30T08:25:28;19.40;49.70
62809;DHT22;48848;39.002;-94.584;2022-10-30T08:30:24;19.50;50.00
62809;DHT22;48848;39.002;-94.584;2022-10-30T08:32:51;19.40;49.60
62809;DHT22;48848;39.002;-94.584;2022-10-30T08:35:17;19.50;49.50
62809;DHT22;48848;39.002;-94.584;2022-10-30T08:37:43;19.40;50.00
62809;DHT22;48848;39.002;-94.584;2022-10-30T08:40:10;19.40;50.00
62809;DHT22;48848;39.002;-94.584;2022-10-30T08:42:36;19.40;50.60
62809;DHT22;48848;39.002;-94.584;2022-10-30T08:45:04;19.40;50.00
62809;DHT22;48848;39.002;-94.584;2022-10-30T08:47:30;19.40;50.10
62809;DHT22;48848;39.002;-94.584;2022-10-30T08:49:56;19.40;50.10
62809;DHT22;48848;39.002;-94.584;2022-10-30T08:52:23;19.30;50.10
62809;DHT22;48848;39.002;-94.584;2022-10-30T08:54:49;19.30;50.20
62809;DHT22;48848;39.002;-94.584;2022-10-30T08:57:15;19.30;50.10
62809;DHT22;48848;39.002;-94.584;2022-10-30T08:59:41;19.30;50.00
62809;DHT22;48848;39.002;-94.584;2022-10-30T09:02:07;19.30;49.70
62809;DHT22;48848;39.002;-94.584;2022-10-30T09:04:34;19.30;50.10
62809;DHT22;48848;39.002;-94.584;2022-10-30T09:07:00;19.30;49.80
62809;DHT22;48848;39.002;-94.584;2022-10-30T09:09:27;19.30;50.10
62809;DHT22;48848;39.002;-94.584;2022-10-30T09:11:53;19.30;49.80
62809;DHT22;48848;39.002;-94.584;2022-10-30T09:14:19;19.30;50.00
62809;DHT22;48848;39.002;-94.584;2022-10-30T09:16:45;19.20;49.80
62809;DHT22;48848;39.002;-94.584;2022-10-30T09:19:11;19.20;50.30
62809;DHT22;48848;39.002;-94.584;2022-10-30T09:21:37;19.30;49.50
62809;DHT22;48848;39.002;-94.584;2022-10-30T09:24:04;19.20;49.90
62809;DHT22;48848;39.002;-94.584;2022-10-30T09:26:30;19.20;50.00
62809;DHT22;48848;39.002;-94.584;2022-10-30T09:28:56;19.20;50.00
62809;DHT22;48848;39.002;-94.584;2022-10-30T09:31:22;19.20;49.60
62809;DHT22;48848;39.002;-94.584;2022-10-30T09:33:48;19.20;49.60
62809;DHT22;48848;39.002;-94.584;2022-10-30T09:36:14;19.20;49.90
62809;DHT22;48848;39.002;-94.584;2022-10-30T09:38:41;19.20;49.70
62809;DHT22;48848;39.002;-94.584;2022-10-30T09:44:03;19.20;50.30
62809;DHT22;48848;39.002;-94.584;2022-10-30T10:01:07;19.20;50.30
62809;DHT22;48848;39.002;-94.584;2022-10-30T10:06:23;19.10;50.00
62809;DHT22;48848;39.002;-94.584;2022-10-30T10:09:37;19.10;50.00
62809;DHT22;48848;39.002;-94.584;2022-10-30T10:11:41;19.10;50.40
62809;DHT22;48848;39.002;-94.584;2022-10-30T10:14:17;19.10;50.40
62809;DHT22;48848;39.002;-94.584;2022-10-30T10:16:52;19.10;50.00
62809;DHT22;48848;39.002;-94.584;2022-10-30T10:19:29;19.10;50.10
62809;DHT22;48848;39.002;-94.584;2022-10-30T10:21:59;19.10;51.40
62809;DHT22;48848;39.002;-94.584;2022-10-30T10:24:29;19.10;50.20
62809;DHT22;48848;39.002;-94.584;2022-10-30T10:31:00;19.10;50.50
62809;DHT22;48848;39.002;-94.584;2022-10-30T10:33:13;19.00;50.10
62809;DHT22;48848;39.002;-94.584;2022-10-30T10:40:01;19.00;50.30
62809;DHT22;48848;39.002;-94.584;2022-10-30T10:42:22;19.00;50.40
62809;DHT22;48848;39.002;-94.584;2022-10-30T10:48:05;19.00;50.30
62809;DHT22;48848;39.002;-94.584;2022-10-30T10:50:51;19.00;50.40
62809;DHT22;48848;39.002;-94.584;2022-10-30T10:53:45;19.00;50.20
62809;DHT22;48848;39.002;-94.584;2022-10-30T10:56:13;19.00;50.60
62809;DHT22;48848;39.002;-94.584;2022-10-30T10:58:59;18.90;50.40
62809;DHT22;48848;39.002;-94.584;2022-10-30T11:01:45;18.90;50.30
62809;DHT22;48848;39.002;-94.584;2022-10-30T11:04:30;18.90;50.30
62809;DHT22;48848;39.002;-94.584;2022-10-30T11:06:57;18.90;50.40
62809;DHT22;48848;39.002;-94.584;2022-10-30T11:09:25;18.90;50.30
62809;DHT22;48848;39.002;-94.584;2022-10-30T11:11:53;18.90;50.40
62809;DHT22;48848;39.002;-94.584;2022-10-30T11:14:23;18.90;50.60
62809;DHT22;48848;39.002;-94.584;2022-10-30T11:17:24;18.90;50.40
62809;DHT22;48848;39.002;-94.584;2022-10-30T11:20:00;18.90;50.50
62809;DHT22;48848;39.002;-94.584;2022-10-30T11:22:35;18.90;50.40
62809;DHT22;48848;39.002;-94.584;2022-10-30T11:25:23;18.90;50.40
62809;DHT22;48848;39.002;-94.584;2022-10-30T11:27:54;18.90;50.40
62809;DHT22;48848;39.002;-94.584;2022-10-30T11:30:22;18.90;50.40
62809;DHT22;48848;39.002;-94.584;2022-10-30T11:32:48;18.80;50.30
62809;DHT22;48848;39.002;-94.584;2022-10-30T11:35:19;18.80;50.60
62809;DHT22;48848;39.002;-94.584;2022-10-30T11:37:48;18.80;50.90
62809;DHT22;48848;39.002;-94.584;2022-10-30T11:40:20;18.90;50.40
62809;DHT22;48848;39.002;-94.584;2022-10-30T11:43:00;18.80;50.60
62809;DHT22;48848;39.002;-94.584;2022-10-30T11:45:33;18.80;50.50
62809;DHT22;48848;39.002;-94.584;2022-10-30T11:48:01;18.80;50.10
62809;DHT22;48848;39.002;-94.584;2022-10-30T11:50:29;18.80;50.70
62809;DHT22;48848;39.002;-94.584;2022-10-30T11:52:59;18.80;50.60
62809;DHT22;48848;39.002;-94.584;2022-10-30T11:55:38;18.80;50.20
62809;DHT22;48848;39.002;-94.584;2022-10-30T11:58:06;18.80;50.30
62809;DHT22;48848;39.002;-94.584;2022-10-30T12:00:37;18.80;50.40
62809;DHT22;48848;39.002;-94.584;2022-10-30T12:03:29;18.70;50.30
62809;DHT22;48848;39.002;-94.584;2022-10-30T12:06:10;18.70;50.70
62809;DHT22;48848;39.002;-94.584;2022-10-30T12:08:41;18.80;50.60
62809;DHT22;48848;39.002;-94.584;2022-10-30T12:11:27;18.80;51.10
62809;DHT22;48848;39.002;-94.584;2022-10-30T12:13:55;18.80;50.70
62809;DHT22;48848;39.002;-94.584;2022-10-30T12:16:22;18.70;51.20
62809;DHT22;48848;39.002;-94.584;2022-10-30T12:21:25;18.80;50.20
62809;DHT22;48848;39.002;-94.584;2022-10-30T12:23:56;18.70;50.70
62809;DHT22;48848;39.002;-94.584;2022-10-30T12:26:24;18.70;50.80
62809;DHT22;48848;39.002;-94.584;2022-10-30T12:29:02;18.70;50.50
62809;DHT22;48848;39.002;-94.584;2022-10-30T12:32:01;18.70;51.00
62809;DHT22;48848;39.002;-94.584;2022-10-30T12:37:23;18.70;50.60
62809;DHT22;48848;39.002;-94.584;2022-10-30T12:40:17;18.60;50.70
62809;DHT22;48848;39.002;-94.584;2022-10-30T12:43:14;18.60;50.80
62809;DHT22;48848;39.002;-94.584;2022-10-30T12:45:48;18.70;50.70
62809;DHT22;48848;39.002;-94.584;2022-10-30T12:53:34;18.60;50.30
62809;DHT22;48848;39.002;-94.584;2022-10-30T12:56:26;18.60;50.20
62809;DHT22;48848;39.002;-94.584;2022-10-30T12:59:29;18.60;50.20
62809;DHT22;48848;39.002;-94.584;2022-10-30T13:02:22;18.60;50.40
62809;DHT22;48848;39.002;-94.584;2022-10-30T13:05:00;18.60;50.90
62809;DHT22;48848;39.002;-94.584;2022-10-30T13:07:34;18.60;52.10
62809;DHT22;48848;39.002;-94.584;2022-10-30T13:13:01;18.60;52.00
62809;DHT22;48848;39.002;-94.584;2022-10-30T13:15:34;18.60;51.40
62809;DHT22;48848;39.002;-94.584;2022-10-30T13:18:19;18.60;51.10
62809;DHT22;48848;39.002;-94.584;2022-10-30T13:21:03;18.50;51.40
62809;DHT22;48848;39.002;-94.584;2022-10-30T13:23:41;18.60;51.00
62809;DHT22;48848;39.002;-94.584;2022-10-30T13:40:13;18.50;51.60
62809;DHT22;48848;39.002;-94.584;2022-10-30T13:53:17;18.50;50.90
62809;DHT22;48848;39.002;-94.584;2022-10-30T13:55:46;18.50;50.80
62809;DHT22;48848;39.002;-94.584;2022-10-30T14:01:09;18.40;50.90
62809;DHT22;48848;39.002;-94.584;2022-10-30T14:04:01;18.40;51.20
62809;DHT22;48848;39.002;-94.584;2022-10-30T14:06:55;18.40;51.40
62809;DHT22;48848;39.002;-94.584;2022-10-30T14:09:38;18.40;51.10
62809;DHT22;48848;39.002;-94.584;2022-10-30T14:15:44;18.50;52.50
62809;DHT22;48848;39.002;-94.584;2022-10-30T14:20:41;19.00;51.60
62809;DHT22;48848;39.002;-94.584;2022-10-30T14:26:19;19.00;51.60
62809;DHT22;48848;39.002;-94.584;2022-10-30T14:28:47;19.00;51.10
62809;DHT22;48848;39.002;-94.584;2022-10-30T14:31:19;18.90;50.90
62809;DHT22;48848;39.002;-94.584;2022-10-30T14:33:57;19.00;51.00
62809;DHT22;48848;39.002;-94.584;2022-10-30T14:44:10;18.90;51.20
62809;DHT22;48848;39.002;-94.584;2022-10-30T14:49:45;18.90;50.90
62809;DHT22;48848;39.002;-94.584;2022-10-30T15:00:39;18.80;50.70
62809;DHT22;48848;39.002;-94.584;2022-10-30T15:06:17;18.80;50.90
62809;DHT22;48848;39.002;-94.584;2022-10-30T15:14:45;18.70;51.30
62809;DHT22;48848;39.002;-94.584;2022-10-30T15:19:49;18.70;51.40
62809;DHT22;48848;39.002;-94.584;2022-10-30T15:22:19;18.70;51.20
62809;DHT22;48848;39.002;-94.584;2022-10-30T15:24:46;18.70;50.90
62809;DHT22;48848;39.002;-94.584;2022-10-30T15:27:23;18.70;50.90
62809;DHT22;48848;39.002;-94.584;2022-10-30T15:29:56;18.70;51.20
62809;DHT22;48848;39.002;-94.584;2022-10-30T15:32:25;18.80;51.70
62809;DHT22;48848;39.002;-94.584;2022-10-30T15:34:57;18.70;51.10
62809;DHT22;48848;39.002;-94.584;2022-10-30T15:37:28;18.70;51.10
62809;DHT22;48848;39.002;-94.584;2022-10-30T15:42:39;18.70;51.20
62809;DHT22;48848;39.002;-94.584;2022-10-30T15:45:15;18.70;51.40
62809;DHT22;48848;39.002;-94.584;2022-10-30T15:48:02;18.70;51.30
62809;DHT22;48848;39.002;-94.584;2022-10-30T15:50:29;18.70;51.30
62809;DHT22;48848;39.002;-94.584;2022-10-30T15:52:56;18.60;52.00
62809;DHT22;48848;39.002;-94.584;2022-10-30T15:55:30;18.70;51.00
62809;DHT22;48848;39.002;-94.584;2022-10-30T15:58:00;18.60;51.30
62809;DHT22;48848;39.002;-94.584;2022-10-30T16:00:30;18.70;51.90
62809;DHT22;48848;39.002;-94.584;2022-10-30T16:03:06;18.70;50.90
62809;DHT22;48848;39.002;-94.584;2022-10-30T16:05:33;18.70;50.90
62809;DHT22;48848;39.002;-94.584;2022-10-30T16:08:02;18.70;51.70
62809;DHT22;48848;39.002;-94.584;2022-10-30T16:10:33;18.90;52.50
62809;DHT22;48848;39.002;-94.584;2022-10-30T16:13:01;19.10;52.10
62809;DHT22;48848;39.002;-94.584;2022-10-30T16:15:32;19.40;52.00
62809;DHT22;48848;39.002;-94.584;2022-10-30T16:18:04;19.60;51.70
62809;DHT22;48848;39.002;-94.584;2022-10-30T16:20:33;19.80;51.50
62809;DHT22;48848;39.002;-94.584;2022-10-30T16:23:00;19.80;51.10
62809;DHT22;48848;39.002;-94.584;2022-10-30T16:25:27;19.80;52.00
62809;DHT22;48848;39.002;-94.584;2022-10-30T16:27:54;19.70;51.00
62809;DHT22;48848;39.002;-94.584;2022-10-30T16:30:20;19.70;51.10
62809;DHT22;48848;39.002;-94.584;2022-10-30T16:32:51;19.70;51.10
62809;DHT22;48848;39.002;-94.584;2022-10-30T16:35:21;19.60;51.10
62809;DHT22;48848;39.002;-94.584;2022-10-30T16:37:48;19.60;51.10
62809;DHT22;48848;39.002;-94.584;2022-10-30T16:40:19;19.60;51.20
62809;DHT22;48848;39.002;-94.584;2022-10-30T16:42:54;19.60;52.20
62809;DHT22;48848;39.002;-94.584;2022-10-30T16:47:55;19.80;51.70
62809;DHT22;48848;39.002;-94.584;2022-10-30T16:50:34;20.00;51.50
62809;DHT22;48848;39.002;-94.584;2022-10-30T16:53:04;20.30;51.40
62809;DHT22;48848;39.002;-94.584;2022-10-30T16:55:31;20.20;51.20
62809;DHT22;48848;39.002;-94.584;2022-10-30T16:57:58;20.20;51.50
62809;DHT22;48848;39.002;-94.584;2022-10-30T17:00:27;20.20;51.20
62809;DHT22;48848;39.002;-94.584;2022-10-30T17:02:56;20.20;51.40
62809;DHT22;48848;39.002;-94.584;2022-10-30T17:08:03;20.10;51.30
62809;DHT22;48848;39.002;-94.584;2022-10-30T17:10:32;20.10;51.30
62809;DHT22;48848;39.002;-94.584;2022-10-30T17:16:26;20.00;51.20
62809;DHT22;48848;39.002;-94.584;2022-10-30T17:18:55;20.00;51.30
62809;DHT22;48848;39.002;-94.584;2022-10-30T17:21:26;19.90;51.30
62809;DHT22;48848;39.002;-94.584;2022-10-30T17:23:56;19.90;51.30
62809;DHT22;48848;39.002;-94.584;2022-10-30T17:26:23;19.90;51.30
62809;DHT22;48848;39.002;-94.584;2022-10-30T17:28:50;19.90;51.40
62809;DHT22;48848;39.002;-94.584;2022-10-30T17:34:16;19.90;51.40
62809;DHT22;48848;39.002;-94.584;2022-10-30T17:36:47;19.90;51.30
62809;DHT22;48848;39.002;-94.584;2022-10-30T17:39:13;19.90;51.40
62809;DHT22;48848;39.002;-94.584;2022-10-30T17:41:41;19.90;51.30
62809;DHT22;48848;39.002;-94.584;2022-10-30T17:44:16;19.90;51.40
62809;DHT22;48848;39.002;-94.584;2022-10-30T17:46:42;19.90;51.40
62809;DHT22;48848;39.002;-94.584;2022-10-30T17:49:21;19.90;51.40
62809;DHT22;48848;39.002;-94.584;2022-10-30T17:51:48;19.90;51.40
62809;DHT22;48848;39.002;-94.584;2022-10-30T17:54:14;19.90;51.40
62809;DHT22;48848;39.002;-94.584;2022-10-30T17:56:41;19.90;51.50
62809;DHT22;48848;39.002;-94.584;2022-10-30T17:59:07;19.90;51.40
62809;DHT22;48848;39.002;-94.584;2022-10-30T18:01:33;19.80;51.40